createdAt,value
2024-02-07T00:00:56.047Z,26.62
2024-02-07T00:01:54.925Z,26.63
2024-02-07T00:02:54.972Z,26.64
2024-02-07T00:03:55.097Z,26.63
2024-02-07T00:04:55.182Z,26.60
2024-02-07T00:05:55.222Z,26.60
2024-02-07T00:06:55.102Z,26.62
2024-02-07T00:07:55.191Z,26.62
2024-02-07T00:08:55.210Z,26.62
2024-02-07T00:09:55.187Z,26.60
2024-02-07T00:10:55.275Z,26.62
2024-02-07T00:11:55.226Z,26.62
2024-02-07T00:12:55.228Z,26.60
2024-02-07T00:13:56.220Z,26.60
2024-02-07T00:14:55.367Z,26.62
2024-02-07T00:15:55.607Z,26.60
2024-02-07T00:16:55.313Z,26.60
2024-02-07T00:17:55.539Z,26.62
2024-02-07T00:18:55.348Z,26.62
2024-02-07T00:19:55.405Z,26.60
2024-02-07T00:20:55.370Z,26.60
2024-02-07T00:21:55.428Z,26.59
2024-02-07T00:22:55.539Z,26.60
2024-02-07T00:23:55.479Z,26.59
2024-02-07T00:24:55.597Z,26.60
2024-02-07T00:25:55.556Z,26.62
2024-02-07T00:26:55.518Z,26.58
2024-02-07T00:27:55.549Z,26.60
2024-02-07T00:28:55.633Z,26.60
2024-02-07T00:29:55.664Z,26.59
2024-02-07T00:30:55.711Z,26.59
2024-02-07T00:31:55.839Z,26.59
2024-02-07T00:32:55.848Z,26.60
2024-02-07T00:33:55.947Z,26.59
2024-02-07T00:34:55.822Z,26.59
2024-02-07T00:35:55.879Z,26.58
2024-02-07T00:36:55.848Z,26.59
2024-02-07T00:37:55.908Z,26.58
2024-02-07T00:38:55.859Z,26.60
2024-02-07T00:39:55.955Z,26.60
2024-02-07T00:40:56.163Z,26.60
2024-02-07T00:41:56.044Z,26.58
2024-02-07T00:42:56.143Z,26.56
2024-02-07T00:43:56.176Z,26.59
2024-02-07T00:44:56.060Z,26.58
2024-02-07T00:45:56.451Z,26.59
2024-02-07T00:46:56.159Z,26.56
2024-02-07T00:47:56.221Z,26.58
2024-02-07T00:48:56.196Z,26.56
2024-02-07T00:49:56.353Z,26.55
2024-02-07T00:50:56.425Z,26.55
2024-02-07T00:51:56.274Z,26.55
2024-02-07T00:52:56.366Z,26.58
2024-02-07T00:53:56.460Z,26.56
2024-02-07T00:54:56.430Z,26.56
2024-02-07T00:55:56.433Z,26.55
2024-02-07T00:56:56.489Z,26.56
2024-02-07T00:57:56.498Z,26.58
2024-02-07T00:58:56.658Z,26.58
2024-02-07T00:59:56.571Z,26.56
2024-02-07T01:00:56.623Z,26.55
2024-02-07T01:01:56.662Z,26.58
2024-02-07T01:02:56.614Z,26.55
2024-02-07T01:03:56.673Z,26.55
2024-02-07T01:04:56.881Z,26.56
2024-02-07T01:05:56.829Z,26.56
2024-02-07T01:06:56.830Z,26.59
2024-02-07T01:07:56.802Z,26.56
2024-02-07T01:08:56.838Z,26.58
2024-02-07T01:09:56.834Z,26.53
2024-02-07T01:10:56.861Z,26.59
2024-02-07T01:11:56.894Z,26.56
2024-02-07T01:12:56.900Z,26.56
2024-02-07T01:13:57.002Z,26.58
2024-02-07T01:14:56.980Z,26.56
2024-02-07T01:15:57.004Z,26.58
2024-02-07T01:16:57.116Z,26.58
2024-02-07T01:17:57.082Z,26.56
2024-02-07T01:18:57.202Z,26.56
2024-02-07T01:19:57.220Z,26.53
2024-02-07T01:20:57.186Z,26.58
2024-02-07T01:21:57.172Z,26.55
2024-02-07T01:22:57.158Z,26.56
2024-02-07T01:23:57.202Z,26.58
2024-02-07T01:24:57.208Z,26.59
2024-02-07T01:25:57.289Z,26.56
2024-02-07T01:26:57.262Z,26.58
2024-02-07T01:27:57.264Z,26.56
2024-02-07T01:28:57.309Z,26.58
2024-02-07T01:29:57.275Z,26.58
2024-02-07T01:30:57.333Z,26.56
2024-02-07T01:31:57.393Z,26.56
2024-02-07T01:32:58.237Z,26.53
2024-02-07T01:33:57.429Z,26.53
2024-02-07T01:34:57.447Z,26.58
2024-02-07T01:35:57.476Z,26.56
2024-02-07T01:36:57.628Z,26.56
2024-02-07T01:37:57.603Z,26.58
2024-02-07T01:38:58.117Z,26.55
2024-02-07T01:39:57.500Z,26.56
2024-02-07T01:40:57.591Z,26.56
2024-02-07T01:41:57.633Z,26.53
2024-02-07T01:42:57.636Z,26.55
2024-02-07T01:43:57.679Z,26.56
2024-02-07T01:44:57.639Z,26.55
2024-02-07T01:45:57.634Z,26.56
2024-02-07T01:46:57.743Z,26.55
2024-02-07T01:47:57.802Z,26.53
2024-02-07T01:48:57.759Z,26.55
2024-02-07T01:49:57.785Z,26.53
2024-02-07T01:50:57.736Z,26.56
2024-02-07T01:51:57.763Z,26.56
2024-02-07T01:52:57.837Z,26.55
2024-02-07T01:53:57.819Z,26.55
2024-02-07T01:54:57.844Z,26.55
2024-02-07T01:55:57.895Z,26.53
2024-02-07T01:56:57.907Z,26.55
2024-02-07T01:57:57.946Z,26.52
2024-02-07T01:58:57.998Z,26.53
2024-02-07T01:59:57.978Z,26.56
2024-02-07T02:00:58.031Z,26.55
2024-02-07T02:01:58.057Z,26.55
2024-02-07T02:02:58.067Z,26.55
2024-02-07T02:03:58.254Z,26.52
2024-02-07T02:04:58.177Z,26.53
2024-02-07T02:05:58.231Z,26.53
2024-02-07T02:06:58.122Z,26.53
2024-02-07T02:07:58.159Z,26.53
2024-02-07T02:08:58.689Z,26.55
2024-02-07T02:09:58.288Z,26.51
2024-02-07T02:10:58.292Z,26.53
2024-02-07T02:11:58.350Z,26.53
2024-02-07T02:12:58.296Z,26.49
2024-02-07T02:13:58.361Z,26.52
2024-02-07T02:14:58.357Z,26.52
2024-02-07T02:15:58.379Z,26.55
2024-02-07T02:16:58.404Z,26.53
2024-02-07T02:17:58.426Z,26.53
2024-02-07T02:18:58.378Z,26.53
2024-02-07T02:19:58.534Z,26.52
2024-02-07T02:20:58.524Z,26.51
2024-02-07T02:21:58.609Z,26.53
2024-02-07T02:22:58.628Z,26.55
2024-02-07T02:23:58.577Z,26.52
2024-02-07T02:24:58.586Z,26.51
2024-02-07T02:25:58.662Z,26.53
2024-02-07T02:26:59.165Z,26.52
2024-02-07T02:27:58.656Z,26.51
2024-02-07T02:28:58.767Z,26.52
2024-02-07T02:29:58.729Z,26.52
2024-02-07T02:30:58.766Z,26.51
2024-02-07T02:31:58.847Z,26.52
2024-02-07T02:32:58.897Z,26.51
2024-02-07T02:33:58.817Z,26.51
2024-02-07T02:34:59.008Z,26.53
2024-02-07T02:35:58.878Z,26.49
2024-02-07T02:36:58.913Z,26.49
2024-02-07T02:37:58.943Z,26.48
2024-02-07T02:38:58.940Z,26.51
2024-02-07T02:39:58.935Z,26.49
2024-02-07T02:40:59.109Z,26.49
2024-02-07T02:41:59.059Z,26.51
2024-02-07T02:42:59.063Z,26.51
2024-02-07T02:43:59.202Z,26.52
2024-02-07T02:44:59.166Z,26.51
2024-02-07T02:45:59.244Z,26.49
2024-02-07T02:46:59.362Z,26.48
2024-02-07T02:47:59.240Z,26.48
2024-02-07T02:48:59.354Z,26.49
2024-02-07T02:49:59.282Z,26.49
2024-02-07T02:50:59.315Z,26.51
2024-02-07T02:51:59.331Z,26.51
2024-02-07T02:52:59.449Z,26.51
2024-02-07T02:53:59.437Z,26.51
2024-02-07T02:54:59.417Z,26.49
2024-02-07T02:55:59.484Z,26.51
2024-02-07T02:56:59.458Z,26.48
2024-02-07T02:57:59.528Z,26.49
2024-02-07T02:58:59.525Z,26.49
2024-02-07T02:59:59.519Z,26.46
2024-02-07T03:00:59.585Z,26.48
2024-02-07T03:01:59.732Z,26.49
2024-02-07T03:02:59.626Z,26.49
2024-02-07T03:03:59.604Z,26.48
2024-02-07T03:04:59.797Z,26.49
2024-02-07T03:05:59.836Z,26.48
2024-02-07T03:07:00.045Z,26.51
2024-02-07T03:07:59.792Z,26.49
2024-02-07T03:08:59.726Z,26.51
2024-02-07T03:09:59.777Z,26.49
2024-02-07T03:10:59.872Z,26.48
2024-02-07T03:11:59.812Z,26.49
2024-02-07T03:12:59.851Z,26.48
2024-02-07T03:13:59.894Z,26.51
2024-02-07T03:15:00.206Z,26.49
2024-02-07T03:15:59.968Z,26.52
2024-02-07T03:17:00.177Z,26.49
2024-02-07T03:18:00.071Z,26.49
2024-02-07T03:19:00.243Z,26.51
2024-02-07T03:20:00.192Z,26.46
2024-02-07T03:21:00.109Z,26.49
2024-02-07T03:22:00.125Z,26.48
2024-02-07T03:23:00.151Z,26.49
2024-02-07T03:24:00.236Z,26.51
2024-02-07T03:25:00.324Z,26.51
2024-02-07T03:26:00.312Z,26.49
2024-02-07T03:27:00.262Z,26.51
2024-02-07T03:28:00.295Z,26.49
2024-02-07T03:29:00.415Z,26.49
2024-02-07T03:30:00.392Z,26.49
2024-02-07T03:31:00.396Z,26.48
2024-02-07T03:32:00.503Z,26.48
2024-02-07T03:33:00.528Z,26.48
2024-02-07T03:34:00.500Z,26.48
2024-02-07T03:35:00.630Z,26.48
2024-02-07T03:36:00.502Z,26.46
2024-02-07T03:37:00.560Z,26.46
2024-02-07T03:38:00.644Z,26.46
2024-02-07T03:39:00.668Z,26.48
2024-02-07T03:40:00.681Z,26.51
2024-02-07T03:41:00.722Z,26.45
2024-02-07T03:42:00.775Z,26.49
2024-02-07T03:43:00.706Z,26.48
2024-02-07T03:44:00.841Z,26.49
2024-02-07T03:45:00.825Z,26.46
2024-02-07T03:46:00.801Z,26.48
2024-02-07T03:47:00.873Z,26.45
2024-02-07T03:48:00.942Z,26.46
2024-02-07T03:49:00.909Z,26.46
2024-02-07T03:50:00.949Z,26.48
2024-02-07T03:51:00.953Z,26.46
2024-02-07T03:52:00.885Z,26.45
2024-02-07T03:53:01.013Z,26.45
2024-02-07T03:54:00.955Z,26.48
2024-02-07T03:55:01.073Z,26.43
2024-02-07T03:56:01.177Z,26.45
2024-02-07T03:57:01.094Z,26.46
2024-02-07T03:58:01.146Z,26.45
2024-02-07T03:59:01.129Z,26.45
2024-02-07T04:00:01.170Z,26.43
2024-02-07T04:01:01.272Z,26.45
2024-02-07T04:02:01.282Z,26.45
2024-02-07T04:03:01.235Z,26.46
2024-02-07T04:04:01.300Z,26.45
2024-02-07T04:05:01.455Z,26.45
2024-02-07T04:06:01.321Z,26.43
2024-02-07T04:07:01.928Z,26.43
2024-02-07T04:08:01.621Z,26.45
2024-02-07T04:09:01.653Z,26.45
2024-02-07T04:10:01.493Z,26.42
2024-02-07T04:11:01.537Z,26.45
2024-02-07T04:12:01.515Z,26.46
2024-02-07T04:13:01.527Z,26.45
2024-02-07T04:14:01.624Z,26.45
2024-02-07T04:15:01.619Z,26.43
2024-02-07T04:16:01.634Z,26.43
2024-02-07T04:17:01.703Z,26.43
2024-02-07T04:18:01.899Z,26.43
2024-02-07T04:19:01.808Z,26.42
2024-02-07T04:20:09.073Z,26.41
2024-02-07T04:21:09.006Z,26.39
2024-02-07T04:22:09.066Z,26.39
2024-02-07T04:23:09.142Z,26.39
2024-02-07T04:24:09.049Z,26.39
2024-02-07T04:25:09.728Z,26.41
2024-02-07T04:26:09.063Z,26.42
2024-02-07T04:27:09.103Z,26.39
2024-02-07T04:28:09.150Z,26.42
2024-02-07T04:29:09.076Z,26.42
2024-02-07T04:30:09.012Z,26.39
2024-02-07T04:31:16.294Z,26.39
2024-02-07T04:32:16.342Z,26.36
2024-02-07T04:33:16.349Z,26.41
2024-02-07T04:34:16.313Z,26.39
2024-02-07T04:35:16.332Z,26.39
2024-02-07T04:36:16.221Z,26.39
2024-02-07T04:37:16.326Z,26.39
2024-02-07T04:38:16.243Z,26.42
2024-02-07T04:39:16.277Z,26.41
2024-02-07T04:40:16.313Z,26.38
2024-02-07T04:41:16.334Z,26.39
2024-02-07T04:42:16.293Z,26.39
2024-02-07T04:43:16.275Z,26.39
2024-02-07T04:44:16.286Z,26.39
2024-02-07T04:45:16.262Z,26.39
2024-02-07T04:46:16.304Z,26.39
2024-02-07T04:47:16.261Z,26.39
2024-02-07T04:48:16.281Z,26.38
2024-02-07T04:49:16.420Z,26.38
2024-02-07T04:50:16.934Z,26.38
2024-02-07T04:51:16.338Z,26.39
2024-02-07T04:52:16.394Z,26.41
2024-02-07T04:53:16.849Z,26.39
2024-02-07T04:54:16.251Z,26.38
2024-02-07T04:55:16.314Z,26.38
2024-02-07T04:56:16.333Z,26.38
2024-02-07T04:57:17.064Z,26.38
2024-02-07T04:58:16.360Z,26.38
2024-02-07T04:59:16.257Z,26.39
2024-02-07T05:00:16.251Z,26.38
2024-02-07T05:01:16.978Z,26.39
2024-02-07T05:02:16.342Z,26.38
2024-02-07T05:03:16.345Z,26.41
2024-02-07T05:04:16.278Z,26.41
2024-02-07T05:05:16.398Z,26.38
2024-02-07T05:06:16.544Z,26.39
2024-02-07T05:07:16.314Z,26.39
2024-02-07T05:08:16.302Z,26.38
2024-02-07T05:09:16.325Z,26.38
2024-02-07T05:10:16.407Z,26.38
2024-02-07T05:11:16.359Z,26.38
2024-02-07T05:12:16.290Z,26.36
2024-02-07T05:13:16.317Z,26.36
2024-02-07T05:14:16.347Z,26.36
2024-02-07T05:15:16.359Z,26.36
2024-02-07T05:16:16.415Z,26.38
2024-02-07T05:17:16.408Z,26.36
2024-02-07T05:18:16.760Z,26.36
2024-02-07T05:19:16.525Z,26.35
2024-02-07T05:20:16.619Z,26.35
2024-02-07T05:21:16.551Z,26.35
2024-02-07T05:22:16.570Z,26.34
2024-02-07T05:23:16.623Z,26.32
2024-02-07T05:24:16.673Z,26.35
2024-02-07T05:25:16.782Z,26.32
2024-02-07T05:26:19.728Z,26.34
2024-02-07T05:27:17.358Z,26.32
2024-02-07T05:28:16.896Z,26.29
2024-02-07T05:29:16.813Z,26.32
2024-02-07T05:30:16.736Z,26.34
2024-02-07T05:31:16.802Z,26.32
2024-02-07T05:32:17.523Z,26.31
2024-02-07T05:33:17.020Z,26.32
2024-02-07T05:34:16.902Z,26.32
2024-02-07T05:35:16.859Z,26.29
2024-02-07T05:36:17.537Z,26.31
2024-02-07T05:37:16.866Z,26.29
2024-02-07T05:38:16.815Z,26.31
2024-02-07T05:39:16.783Z,26.32
2024-02-07T05:40:16.748Z,26.31
2024-02-07T05:41:16.737Z,26.28
2024-02-07T05:42:16.724Z,26.29
2024-02-07T05:43:16.812Z,26.32
2024-02-07T05:44:16.754Z,26.29
2024-02-07T05:45:16.894Z,26.31
2024-02-07T05:46:16.766Z,26.32
2024-02-07T05:47:17.422Z,26.31
2024-02-07T05:48:18.107Z,26.29
2024-02-07T05:49:17.141Z,26.32
2024-02-07T05:50:17.086Z,26.31
2024-02-07T05:51:17.019Z,26.32
2024-02-07T05:52:17.055Z,26.34
2024-02-07T05:53:17.063Z,26.31
2024-02-07T05:54:17.085Z,26.36
2024-02-07T05:55:17.215Z,26.34
2024-02-07T05:56:17.349Z,26.34
2024-02-07T05:57:17.215Z,26.34
2024-02-07T05:58:20.210Z,26.34
2024-02-07T05:59:17.223Z,26.34
2024-02-07T06:00:17.226Z,26.35
2024-02-07T06:01:17.319Z,26.34
2024-02-07T06:02:17.452Z,26.34
2024-02-07T06:03:17.234Z,26.34
2024-02-07T06:04:20.333Z,26.34
2024-02-07T06:05:17.319Z,26.34
2024-02-07T06:06:17.213Z,26.36
2024-02-07T06:07:17.326Z,26.35
2024-02-07T06:08:17.356Z,26.34
2024-02-07T06:09:17.293Z,26.34
2024-02-07T06:10:17.286Z,26.34
2024-02-07T06:11:17.272Z,26.31
2024-02-07T06:12:17.210Z,26.32
2024-02-07T06:13:17.325Z,26.32
2024-02-07T06:14:17.315Z,26.34
2024-02-07T06:15:17.228Z,26.34
2024-02-07T06:16:17.284Z,26.35
2024-02-07T06:17:17.233Z,26.32
2024-02-07T06:18:17.234Z,26.35
2024-02-07T06:19:17.382Z,26.35
2024-02-07T06:20:17.387Z,26.38
2024-02-07T06:21:17.288Z,26.36
2024-02-07T06:22:17.333Z,26.39
2024-02-07T06:23:17.228Z,26.36
2024-02-07T06:24:17.251Z,26.41
2024-02-07T06:25:17.712Z,26.36
2024-02-07T06:26:17.351Z,26.41
2024-02-07T06:27:17.285Z,26.39
2024-02-07T06:28:17.479Z,26.42
2024-02-07T06:29:17.268Z,26.39
2024-02-07T06:30:17.270Z,26.41
2024-02-07T06:31:17.332Z,26.43
2024-02-07T06:32:17.243Z,26.42
2024-02-07T06:33:17.401Z,26.42
2024-02-07T06:34:17.362Z,26.43
2024-02-07T06:35:17.372Z,26.42
2024-02-07T06:36:17.250Z,26.41
2024-02-07T06:37:17.283Z,26.38
2024-02-07T06:38:17.362Z,26.35
2024-02-07T06:39:17.289Z,26.35
2024-02-07T06:40:17.314Z,26.32
2024-02-07T06:41:17.962Z,26.29
2024-02-07T06:42:17.316Z,26.24
2024-02-07T06:43:17.371Z,26.22
2024-02-07T06:44:17.267Z,26.17
2024-02-07T06:45:17.319Z,26.15
2024-02-07T06:46:17.483Z,26.14
2024-02-07T06:47:23.964Z,26.14
2024-02-07T06:48:17.457Z,26.15
2024-02-07T06:49:24.084Z,26.14
2024-02-07T06:50:20.104Z,26.18
2024-02-07T06:51:17.350Z,26.14
2024-02-07T06:52:18.974Z,26.14
2024-02-07T06:53:17.308Z,26.15
2024-02-07T06:54:17.299Z,26.18
2024-02-07T06:55:17.326Z,26.18
2024-02-07T06:56:17.324Z,26.18
2024-02-07T06:57:17.484Z,26.21
2024-02-07T06:58:17.330Z,26.21
2024-02-07T06:59:17.382Z,26.20
2024-02-07T07:00:17.407Z,26.20
2024-02-07T07:01:17.586Z,26.22
2024-02-07T07:02:17.551Z,26.24
2024-02-07T07:03:17.415Z,26.20
2024-02-07T07:04:17.461Z,26.22
2024-02-07T07:05:17.336Z,26.22
2024-02-07T07:06:17.449Z,26.24
2024-02-07T07:07:18.021Z,26.24
2024-02-07T07:08:17.422Z,26.27
2024-02-07T07:09:17.344Z,26.27
2024-02-07T07:10:18.109Z,26.27
2024-02-07T07:11:17.576Z,26.28
2024-02-07T07:12:17.356Z,26.27
2024-02-07T07:13:17.480Z,26.28
2024-02-07T07:14:17.374Z,26.27
2024-02-07T07:15:26.145Z,26.29
2024-02-07T07:16:18.548Z,26.29
2024-02-07T07:17:17.503Z,26.29
2024-02-07T07:18:17.809Z,26.29
2024-02-07T07:19:17.897Z,26.31
2024-02-07T07:20:18.098Z,26.32
2024-02-07T07:21:17.613Z,26.31
2024-02-07T07:22:17.679Z,26.35
2024-02-07T07:23:17.791Z,26.34
2024-02-07T07:24:20.511Z,26.31
2024-02-07T07:25:17.762Z,26.35
2024-02-07T07:26:17.691Z,26.36
2024-02-07T07:27:17.694Z,26.36
2024-02-07T07:28:17.731Z,26.34
2024-02-07T07:29:18.008Z,26.35
2024-02-07T07:30:18.438Z,26.32
2024-02-07T07:31:17.749Z,26.36
2024-02-07T07:32:17.924Z,26.38
2024-02-07T07:33:17.887Z,26.35
2024-02-07T07:34:17.798Z,26.34
2024-02-07T07:35:17.900Z,26.36
2024-02-07T07:36:17.789Z,26.35
2024-02-07T07:37:17.862Z,26.36
2024-02-07T07:38:17.729Z,26.35
2024-02-07T07:39:17.684Z,26.35
2024-02-07T07:40:17.739Z,26.32
2024-02-07T07:41:17.751Z,26.24
2024-02-07T07:42:18.016Z,26.20
2024-02-07T07:43:17.795Z,26.15
2024-02-07T07:44:18.420Z,26.12
2024-02-07T07:45:17.818Z,26.12
2024-02-07T07:46:17.760Z,26.12
2024-02-07T07:47:18.601Z,26.11
2024-02-07T07:48:21.370Z,26.08
2024-02-07T07:49:18.866Z,26.05
2024-02-07T07:50:18.000Z,26.00
2024-02-07T07:51:17.871Z,25.95
2024-02-07T07:52:18.066Z,25.88
2024-02-07T07:53:17.743Z,25.84
2024-02-07T07:54:17.756Z,25.79
2024-02-07T07:55:17.808Z,25.73
2024-02-07T07:56:18.492Z,25.73
2024-02-07T07:57:18.522Z,25.71
2024-02-07T07:58:18.087Z,25.69
2024-02-07T07:59:18.580Z,25.64
2024-02-07T08:00:18.606Z,25.59
2024-02-07T08:01:18.056Z,25.61
2024-02-07T08:02:17.856Z,25.59
2024-02-07T08:03:17.853Z,25.59
2024-02-07T08:04:18.064Z,25.54
2024-02-07T08:05:18.059Z,25.56
2024-02-07T08:06:18.451Z,25.57
2024-02-07T08:07:18.119Z,25.56
2024-02-07T08:08:18.265Z,25.60
2024-02-07T08:09:18.964Z,25.61
2024-02-07T08:10:18.347Z,25.61
2024-02-07T08:11:18.481Z,25.63
2024-02-07T08:12:20.225Z,25.63
2024-02-07T08:13:18.544Z,25.61
2024-02-07T08:14:18.282Z,25.64
2024-02-07T08:15:18.461Z,25.66
2024-02-07T08:16:18.486Z,25.70
2024-02-07T08:17:18.448Z,25.71
2024-02-07T08:18:18.971Z,25.73
2024-02-07T08:19:18.636Z,25.74
2024-02-07T08:20:18.680Z,25.79
2024-02-07T08:21:19.472Z,25.79
2024-02-07T08:22:18.790Z,25.81
2024-02-07T08:23:19.497Z,25.83
2024-02-07T08:24:18.844Z,25.83
2024-02-07T08:25:18.864Z,25.85
2024-02-07T08:26:18.893Z,25.88
2024-02-07T08:27:25.168Z,25.87
2024-02-07T08:28:19.001Z,25.90
2024-02-07T08:29:19.665Z,25.88
2024-02-07T08:30:19.551Z,25.90
2024-02-07T08:31:18.986Z,25.92
2024-02-07T08:32:19.332Z,25.92
2024-02-07T08:33:20.685Z,25.92
2024-02-07T08:34:19.255Z,25.92
2024-02-07T08:35:19.061Z,25.94
2024-02-07T08:36:19.045Z,25.91
2024-02-07T08:37:22.040Z,25.90
2024-02-07T08:38:18.904Z,25.91
2024-02-07T08:39:18.989Z,25.88
2024-02-07T08:40:18.977Z,25.90
2024-02-07T08:41:18.900Z,25.91
2024-02-07T08:42:19.048Z,25.92
2024-02-07T08:43:18.956Z,25.94
2024-02-07T08:44:19.464Z,25.98
2024-02-07T08:45:19.043Z,26.00
2024-02-07T08:46:19.013Z,26.01
2024-02-07T08:47:18.977Z,26.04
2024-02-07T08:48:19.075Z,26.02
2024-02-07T08:49:19.149Z,26.08
2024-02-07T08:50:19.090Z,26.09
2024-02-07T08:51:19.495Z,26.11
2024-02-07T08:52:19.035Z,26.14
2024-02-07T08:53:21.569Z,26.15
2024-02-07T08:54:19.019Z,26.15
2024-02-07T08:55:18.949Z,26.14
2024-02-07T08:56:21.212Z,26.18
2024-02-07T08:57:18.934Z,26.18
2024-02-07T08:58:18.982Z,26.20
2024-02-07T08:59:19.683Z,26.18
2024-02-07T09:00:19.045Z,26.21
2024-02-07T09:01:19.099Z,26.24
2024-02-07T09:02:19.072Z,26.21
2024-02-07T09:03:19.986Z,26.21
2024-02-07T09:04:19.590Z,26.22
2024-02-07T09:05:19.229Z,26.24
2024-02-07T09:06:19.303Z,26.25
2024-02-07T09:07:22.665Z,26.25
2024-02-07T09:08:19.770Z,26.27
2024-02-07T09:09:19.268Z,26.25
2024-02-07T09:10:20.137Z,26.29
2024-02-07T09:11:19.286Z,26.29
2024-02-07T09:12:19.212Z,26.29
2024-02-07T09:13:19.757Z,26.31
2024-02-07T09:14:19.218Z,26.29
2024-02-07T09:15:19.252Z,26.31
2024-02-07T09:16:19.285Z,26.31
2024-02-07T09:17:19.254Z,26.34
2024-02-07T09:18:19.588Z,26.32
2024-02-07T09:19:19.476Z,26.34
2024-02-07T09:20:19.331Z,26.35
2024-02-07T09:21:19.185Z,26.35
2024-02-07T09:22:19.318Z,26.34
2024-02-07T09:23:19.518Z,26.35
2024-02-07T09:24:19.197Z,26.36
2024-02-07T09:25:19.390Z,26.35
2024-02-07T09:26:19.227Z,26.34
2024-02-07T09:27:19.230Z,26.31
2024-02-07T09:28:19.314Z,26.27
2024-02-07T09:29:19.239Z,26.21
2024-02-07T09:30:19.229Z,26.17
2024-02-07T09:31:19.186Z,26.12
2024-02-07T09:32:19.233Z,26.09
2024-02-07T09:33:19.296Z,26.09
2024-02-07T09:34:20.062Z,26.09
2024-02-07T09:35:19.488Z,26.04
2024-02-07T09:36:19.509Z,26.05
2024-02-07T09:37:19.318Z,26.04
2024-02-07T09:38:21.020Z,26.04
2024-02-07T09:39:19.310Z,26.02
2024-02-07T09:40:19.321Z,26.04
2024-02-07T09:41:19.211Z,26.04
2024-02-07T09:42:19.295Z,26.01
2024-02-07T09:43:19.286Z,26.02
2024-02-07T09:44:19.665Z,26.02
2024-02-07T09:45:20.013Z,26.02
2024-02-07T09:46:19.277Z,26.02
2024-02-07T09:47:20.028Z,26.04
2024-02-07T09:48:20.203Z,26.07
2024-02-07T09:49:20.299Z,26.08
2024-02-07T09:50:20.130Z,26.11
2024-02-07T09:51:20.044Z,26.09
2024-02-07T09:52:19.584Z,26.09
2024-02-07T09:53:20.008Z,26.12
2024-02-07T09:54:19.521Z,26.14
2024-02-07T09:55:19.432Z,26.15
2024-02-07T09:56:19.631Z,26.18
2024-02-07T09:57:19.442Z,26.17
2024-02-07T09:58:19.876Z,26.20
2024-02-07T09:59:21.276Z,26.21
2024-02-07T10:00:20.057Z,26.22
2024-02-07T10:01:20.662Z,26.24
2024-02-07T10:02:20.063Z,26.24
2024-02-07T10:03:19.688Z,26.24
2024-02-07T10:04:20.277Z,26.25
2024-02-07T10:05:19.830Z,26.27
2024-02-07T10:06:20.070Z,26.29
2024-02-07T10:07:19.977Z,26.28
2024-02-07T10:08:20.021Z,26.29
2024-02-07T10:09:19.928Z,26.32
2024-02-07T10:10:21.182Z,26.32
2024-02-07T10:11:19.957Z,26.35
2024-02-07T10:12:20.040Z,26.35
2024-02-07T10:13:20.112Z,26.34
2024-02-07T10:14:19.995Z,26.34
2024-02-07T10:15:20.079Z,26.36
2024-02-07T10:16:20.090Z,26.36
2024-02-07T10:17:20.014Z,26.36
2024-02-07T10:18:20.240Z,26.38
2024-02-07T10:19:20.099Z,26.39
2024-02-07T10:20:20.688Z,26.39
2024-02-07T10:21:20.105Z,26.39
2024-02-07T10:22:20.213Z,26.41
2024-02-07T10:23:20.168Z,26.42
2024-02-07T10:24:20.331Z,26.45
2024-02-07T10:25:21.990Z,26.41
2024-02-07T10:26:20.258Z,26.45
2024-02-07T10:27:20.288Z,26.45
2024-02-07T10:28:20.869Z,26.45
2024-02-07T10:29:22.090Z,26.46
2024-02-07T10:30:21.023Z,26.49
2024-02-07T10:31:20.520Z,26.48
2024-02-07T10:32:20.512Z,26.49
2024-02-07T10:33:29.033Z,26.48
2024-02-07T10:34:21.543Z,26.45
2024-02-07T10:35:20.673Z,26.45
2024-02-07T10:36:20.431Z,26.45
2024-02-07T10:37:20.421Z,26.43
2024-02-07T10:38:20.561Z,26.43
2024-02-07T10:39:21.053Z,26.43
2024-02-07T10:40:20.462Z,26.42
2024-02-07T10:41:20.437Z,26.42
2024-02-07T10:42:20.560Z,26.42
2024-02-07T10:43:20.426Z,26.43
2024-02-07T10:44:20.386Z,26.43
2024-02-07T10:45:20.715Z,26.45
2024-02-07T10:46:20.528Z,26.43
2024-02-07T10:47:20.603Z,26.46
2024-02-07T10:48:20.638Z,26.43
2024-02-07T10:49:22.543Z,26.45
2024-02-07T10:50:20.793Z,26.45
2024-02-07T10:51:20.659Z,26.45
2024-02-07T10:52:21.198Z,26.42
2024-02-07T10:53:20.555Z,26.45
2024-02-07T10:54:20.572Z,26.45
2024-02-07T10:55:20.756Z,26.43
2024-02-07T10:56:20.701Z,26.48
2024-02-07T10:57:21.118Z,26.46
2024-02-07T10:58:20.753Z,26.46
2024-02-07T10:59:21.093Z,26.45
2024-02-07T11:00:20.847Z,26.49
2024-02-07T11:01:20.878Z,26.46
2024-02-07T11:02:20.972Z,26.46
2024-02-07T11:03:20.952Z,26.48
2024-02-07T11:04:21.692Z,26.48
2024-02-07T11:05:20.970Z,26.46
2024-02-07T11:06:21.102Z,26.49
2024-02-07T11:07:22.364Z,26.46
2024-02-07T11:08:21.594Z,26.51
2024-02-07T11:09:21.085Z,26.49
2024-02-07T11:10:21.306Z,26.51
2024-02-07T11:11:21.183Z,26.48
2024-02-07T11:12:21.185Z,26.51
2024-02-07T11:13:21.628Z,26.51
2024-02-07T11:14:21.216Z,26.49
2024-02-07T11:15:21.284Z,26.49
2024-02-07T11:16:21.454Z,26.51
2024-02-07T11:17:21.409Z,26.51
2024-02-07T11:18:22.095Z,26.52
2024-02-07T11:19:22.247Z,26.52
2024-02-07T11:20:21.548Z,26.52
2024-02-07T11:21:21.530Z,26.52
2024-02-07T11:22:21.515Z,26.53
2024-02-07T11:23:21.554Z,26.53
2024-02-07T11:24:21.587Z,26.55
2024-02-07T11:25:21.632Z,26.56
2024-02-07T11:26:22.512Z,26.55
2024-02-07T11:27:21.614Z,26.53
2024-02-07T11:28:21.710Z,26.55
2024-02-07T11:29:22.673Z,26.55
2024-02-07T11:30:21.727Z,26.55
2024-02-07T11:31:22.713Z,26.56
2024-02-07T11:32:21.733Z,26.56
2024-02-07T11:33:21.831Z,26.58
2024-02-07T11:34:21.998Z,26.58
2024-02-07T11:35:22.020Z,26.59
2024-02-07T11:36:21.884Z,26.58
2024-02-07T11:37:22.037Z,26.60
2024-02-07T11:38:22.057Z,26.62
2024-02-07T11:39:23.096Z,26.59
2024-02-07T11:40:22.850Z,26.60
2024-02-07T11:41:22.162Z,26.62
2024-02-07T11:42:22.174Z,26.62
2024-02-07T11:43:22.159Z,26.60
2024-02-07T11:44:22.558Z,26.62
2024-02-07T11:45:22.123Z,26.63
2024-02-07T11:46:22.135Z,26.63
2024-02-07T11:47:22.147Z,26.64
2024-02-07T11:48:22.288Z,26.64
2024-02-07T11:49:22.651Z,26.68
2024-02-07T11:50:22.295Z,26.68
2024-02-07T11:51:25.025Z,26.66
2024-02-07T11:52:22.277Z,26.69
2024-02-07T11:53:22.471Z,26.70
2024-02-07T11:54:22.621Z,26.69
2024-02-07T11:55:22.519Z,26.70
2024-02-07T11:56:22.303Z,26.69
2024-02-07T11:57:22.298Z,26.69
2024-02-07T11:58:22.324Z,26.70
2024-02-07T11:59:22.710Z,26.72
2024-02-07T12:00:22.302Z,26.69
2024-02-07T12:01:22.436Z,26.68
2024-02-07T12:02:22.323Z,26.72
2024-02-07T12:03:22.287Z,26.69
2024-02-07T12:04:22.962Z,26.72
2024-02-07T12:05:23.532Z,26.70
2024-02-07T12:06:22.392Z,26.70
2024-02-07T12:07:22.439Z,26.72
2024-02-07T12:08:23.145Z,26.69
2024-02-07T12:09:22.305Z,26.72
2024-02-07T12:10:22.705Z,26.72
2024-02-07T12:11:22.579Z,26.70
2024-02-07T12:12:22.322Z,26.69
2024-02-07T12:13:22.352Z,26.72
2024-02-07T12:14:22.340Z,26.70
2024-02-07T12:15:22.332Z,26.69
2024-02-07T12:16:22.750Z,26.70
2024-02-07T12:17:22.385Z,26.70
2024-02-07T12:18:22.358Z,26.73
2024-02-07T12:19:22.567Z,26.69
2024-02-07T12:20:22.473Z,26.72
2024-02-07T12:21:26.021Z,26.72
2024-02-07T12:22:22.401Z,26.70
2024-02-07T12:23:22.359Z,26.69
2024-02-07T12:24:22.291Z,26.72
2024-02-07T12:25:22.509Z,26.75
2024-02-07T12:26:22.319Z,26.73
2024-02-07T12:27:26.130Z,26.72
2024-02-07T12:28:22.642Z,26.75
2024-02-07T12:29:23.171Z,26.78
2024-02-07T12:30:22.327Z,26.76
2024-02-07T12:31:22.371Z,26.79
2024-02-07T12:32:22.351Z,26.78
2024-02-07T12:33:22.547Z,26.79
2024-02-07T12:34:22.382Z,26.80
2024-02-07T12:35:22.414Z,26.80
2024-02-07T12:36:22.377Z,26.82
2024-02-07T12:37:22.411Z,26.83
2024-02-07T12:38:22.388Z,26.82
2024-02-07T12:39:22.404Z,26.83
2024-02-07T12:40:22.486Z,26.85
2024-02-07T12:41:22.342Z,26.83
2024-02-07T12:42:22.428Z,26.85
2024-02-07T12:43:24.209Z,26.83
2024-02-07T12:44:22.534Z,26.83
2024-02-07T12:45:22.368Z,26.86
2024-02-07T12:46:22.405Z,26.86
2024-02-07T12:47:22.513Z,26.90
2024-02-07T12:48:22.436Z,26.89
2024-02-07T12:49:25.546Z,26.87
2024-02-07T12:50:22.503Z,26.86
2024-02-07T12:51:22.677Z,26.89
2024-02-07T12:52:22.753Z,26.89
2024-02-07T12:53:23.100Z,26.89